sensor_id;sensor_type;location;lat;lon;timestamp;temperature;humidity
12847;DHT22;6492;48.128;8.320;2023-08-17T00:03:35;17.00;58.90
12847;DHT22;6492;48.128;8.320;2023-08-17T00:07:37;17.00;58.30
12847;DHT22;6492;48.128;8.320;2023-08-17T00:11:40;17.10;57.60
12847;DHT22;6492;48.128;8.320;2023-08-17T00:15:42;17.20;56.70
12847;DHT22;6492;48.128;8.320;2023-08-17T00:19:45;17.20;56.00
12847;DHT22;6492;48.128;8.320;2023-08-17T00:23:47;17.20;55.70
12847;DHT22;6492;48.128;8.320;2023-08-17T00:27:51;17.20;55.10
12847;DHT22;6492;48.128;8.320;2023-08-17T00:31:52;17.20;55.10
12847;DHT22;6492;48.128;8.320;2023-08-17T00:35:54;17.20;54.80
12847;DHT22;6492;48.128;8.320;2023-08-17T00:39:56;17.30;54.70
12847;DHT22;6492;48.128;8.320;2023-08-17T00:43:59;17.40;54.70
12847;DHT22;6492;48.128;8.320;2023-08-17T00:48:01;17.40;53.70
12847;DHT22;6492;48.128;8.320;2023-08-17T00:52:04;17.20;54.10
12847;DHT22;6492;48.128;8.320;2023-08-17T00:56:06;17.10;55.30
12847;DHT22;6492;48.128;8.320;2023-08-17T01:00:12;17.00;55.40
12847;DHT22;6492;48.128;8.320;2023-08-17T01:04:14;16.90;56.90
12847;DHT22;6492;48.128;8.320;2023-08-17T01:08:16;16.70;58.20
12847;DHT22;6492;48.128;8.320;2023-08-17T01:12:23;16.50;59.10
12847;DHT22;6492;48.128;8.320;2023-08-17T01:16:32;16.30;59.60
12847;DHT22;6492;48.128;8.320;2023-08-17T01:20:34;16.20;61.10
12847;DHT22;6492;48.128;8.320;2023-08-17T01:24:38;16.10;62.90
12847;DHT22;6492;48.128;8.320;2023-08-17T01:28:40;15.90;63.60
12847;DHT22;6492;48.128;8.320;2023-08-17T01:32:47;15.80;64.50
12847;DHT22;6492;48.128;8.320;2023-08-17T01:36:53;15.70;65.30
12847;DHT22;6492;48.128;8.320;2023-08-17T01:40:57;15.60;66.20
12847;DHT22;6492;48.128;8.320;2023-08-17T01:44:59;15.60;67.00
12847;DHT22;6492;48.128;8.320;2023-08-17T01:49:01;15.50;68.00
12847;DHT22;6492;48.128;8.320;2023-08-17T01:53:03;15.40;68.50
12847;DHT22;6492;48.128;8.320;2023-08-17T01:57:06;15.40;69.40
12847;DHT22;6492;48.128;8.320;2023-08-17T02:01:08;15.30;70.30
12847;DHT22;6492;48.128;8.320;2023-08-17T02:05:10;15.30;71.30
12847;DHT22;6492;48.128;8.320;2023-08-17T02:09:12;15.30;72.50
12847;DHT22;6492;48.128;8.320;2023-08-17T02:13:15;15.40;73.60
12847;DHT22;6492;48.128;8.320;2023-08-17T02:17:18;15.40;74.60
12847;DHT22;6492;48.128;8.320;2023-08-17T02:21:19;15.30;74.90
12847;DHT22;6492;48.128;8.320;2023-08-17T02:25:21;15.30;75.60
12847;DHT22;6492;48.128;8.320;2023-08-17T02:29:24;15.20;75.80
12847;DHT22;6492;48.128;8.320;2023-08-17T02:33:26;15.20;76.00
12847;DHT22;6492;48.128;8.320;2023-08-17T02:37:28;15.10;76.10
12847;DHT22;6492;48.128;8.320;2023-08-17T02:41:29;15.00;75.90
12847;DHT22;6492;48.128;8.320;2023-08-17T02:45:35;14.90;76.40
12847;DHT22;6492;48.128;8.320;2023-08-17T02:49:36;15.00;77.10
12847;DHT22;6492;48.128;8.320;2023-08-17T02:53:38;15.00;77.40
12847;DHT22;6492;48.128;8.320;2023-08-17T02:57:40;15.00;77.60
12847;DHT22;6492;48.128;8.320;2023-08-17T03:01:43;15.00;77.80
12847;DHT22;6492;48.128;8.320;2023-08-17T03:05:45;15.00;78.20
12847;DHT22;6492;48.128;8.320;2023-08-17T03:09:47;15.00;78.40
12847;DHT22;6492;48.128;8.320;2023-08-17T03:13:49;15.00;78.50
12847;DHT22;6492;48.128;8.320;2023-08-17T03:17:52;15.00;78.70
12847;DHT22;6492;48.128;8.320;2023-08-17T03:21:53;15.00;78.70
12847;DHT22;6492;48.128;8.320;2023-08-17T03:25:55;15.00;79.00
12847;DHT22;6492;48.128;8.320;2023-08-17T03:29:57;15.10;79.30
12847;DHT22;6492;48.128;8.320;2023-08-17T03:34:00;15.00;79.30
12847;DHT22;6492;48.128;8.320;2023-08-17T03:38:02;15.00;79.30
12847;DHT22;6492;48.128;8.320;2023-08-17T03:42:04;15.00;79.40
12847;DHT22;6492;48.128;8.320;2023-08-17T03:46:06;14.90;79.40
12847;DHT22;6492;48.128;8.320;2023-08-17T03:50:09;14.90;79.50
12847;DHT22;6492;48.128;8.320;2023-08-17T03:54:12;14.90;79.70
12847;DHT22;6492;48.128;8.320;2023-08-17T03:58:14;14.90;79.90
12847;DHT22;6492;48.128;8.320;2023-08-17T04:02:15;14.90;80.00
12847;DHT22;6492;48.128;8.320;2023-08-17T04:06:18;14.80;79.80
12847;DHT22;6492;48.128;8.320;2023-08-17T04:10:20;14.80;79.80
12847;DHT22;6492;48.128;8.320;2023-08-17T04:14:22;14.70;79.80
12847;DHT22;6492;48.128;8.320;2023-08-17T04:18:24;14.70;80.00
12847;DHT22;6492;48.128;8.320;2023-08-17T04:22:27;14.70;80.10
12847;DHT22;6492;48.128;8.320;2023-08-17T04:26:29;14.80;80.20
12847;DHT22;6492;48.128;8.320;2023-08-17T04:30:30;14.80;80.30
12847;DHT22;6492;48.128;8.320;2023-08-17T04:34:34;14.70;80.20
12847;DHT22;6492;48.128;8.320;2023-08-17T04:38:39;14.70;80.20
12847;DHT22;6492;48.128;8.320;2023-08-17T04:42:41;14.60;80.10
12847;DHT22;6492;48.128;8.320;2023-08-17T04:46:42;14.60;80.10
12847;DHT22;6492;48.128;8.320;2023-08-17T04:50:44;14.60;80.20
12847;DHT22;6492;48.128;8.320;2023-08-17T04:54:48;14.60;80.20
12847;DHT22;6492;48.128;8.320;2023-08-17T04:58:49;14.60;80.30
12847;DHT22;6492;48.128;8.320;2023-08-17T05:02:51;14.60;80.40
12847;DHT22;6492;48.128;8.320;2023-08-17T05:06:53;14.60;80.40
12847;DHT22;6492;48.128;8.320;2023-08-17T05:10:56;14.70;80.60
12847;DHT22;6492;48.128;8.320;2023-08-17T05:14:58;14.80;80.70
12847;DHT22;6492;48.128;8.320;2023-08-17T05:18:59;15.00;80.90
12847;DHT22;6492;48.128;8.320;2023-08-17T05:23:01;15.00;81.00
12847;DHT22;6492;48.128;8.320;2023-08-17T05:27:04;15.10;81.10
12847;DHT22;6492;48.128;8.320;2023-08-17T05:31:08;15.30;81.30
12847;DHT22;6492;48.128;8.320;2023-08-17T05:35:10;15.30;81.40
12847;DHT22;6492;48.128;8.320;2023-08-17T05:39:12;15.40;81.30
12847;DHT22;6492;48.128;8.320;2023-08-17T05:43:15;15.50;81.50
12847;DHT22;6492;48.128;8.320;2023-08-17T05:47:17;15.60;81.50
12847;DHT22;6492;48.128;8.320;2023-08-17T05:51:19;15.70;81.60
12847;DHT22;6492;48.128;8.320;2023-08-17T05:55:21;15.70;81.70
12847;DHT22;6492;48.128;8.320;2023-08-17T05:59:24;15.80;81.70
12847;DHT22;6492;48.128;8.320;2023-08-17T06:03:26;15.90;81.80
12847;DHT22;6492;48.128;8.320;2023-08-17T06:07:31;16.00;81.80
12847;DHT22;6492;48.128;8.320;2023-08-17T06:11:33;16.20;81.90
12847;DHT22;6492;48.128;8.320;2023-08-17T06:15:36;16.30;82.10
12847;DHT22;6492;48.128;8.320;2023-08-17T06:19:37;16.40;82.10
12847;DHT22;6492;48.128;8.320;2023-08-17T06:23:40;16.70;82.30
12847;DHT22;6492;48.128;8.320;2023-08-17T06:27:42;16.80;82.30
12847;DHT22;6492;48.128;8.320;2023-08-17T06:31:45;16.90;82.50
12847;DHT22;6492;48.128;8.320;2023-08-17T06:35:48;17.00;82.50
12847;DHT22;6492;48.128;8.320;2023-08-17T06:39:56;17.10;82.70
12847;DHT22;6492;48.128;8.320;2023-08-17T06:43:57;17.20;82.40
12847;DHT22;6492;48.128;8.320;2023-08-17T06:48:01;17.50;81.90
12847;DHT22;6492;48.128;8.320;2023-08-17T06:52:03;17.70;80.60
12847;DHT22;6492;48.128;8.320;2023-08-17T06:56:04;18.00;78.80
12847;DHT22;6492;48.128;8.320;2023-08-17T07:00:08;18.30;77.60
12847;DHT22;6492;48.128;8.320;2023-08-17T07:04:13;18.50;73.00
12847;DHT22;6492;48.128;8.320;2023-08-17T07:08:15;18.70;67.20
12847;DHT22;6492;48.128;8.320;2023-08-17T07:12:18;19.00;61.00
12847;DHT22;6492;48.128;8.320;2023-08-17T07:16:20;19.30;57.30
12847;DHT22;6492;48.128;8.320;2023-08-17T07:20:25;19.60;55.20
12847;DHT22;6492;48.128;8.320;2023-08-17T07:24:27;19.90;53.70
12847;DHT22;6492;48.128;8.320;2023-08-17T07:28:29;20.20;51.20
12847;DHT22;6492;48.128;8.320;2023-08-17T07:32:30;20.60;48.10
12847;DHT22;6492;48.128;8.320;2023-08-17T07:36:34;21.10;43.50
12847;DHT22;6492;48.128;8.320;2023-08-17T07:40:35;21.70;36.20
12847;DHT22;6492;48.128;8.320;2023-08-17T07:44:37;22.50;33.70
12847;DHT22;6492;48.128;8.320;2023-08-17T07:48:40;23.80;26.40
12847;DHT22;6492;48.128;8.320;2023-08-17T07:52:43;25.30;19.20
12847;DHT22;6492;48.128;8.320;2023-08-17T07:56:45;26.60;11.90
12847;DHT22;6492;48.128;8.320;2023-08-17T08:00:46;27.70;7.90
12847;DHT22;6492;48.128;8.320;2023-08-17T08:04:48;28.40;5.80
12847;DHT22;6492;48.128;8.320;2023-08-17T08:08:51;29.20;3.10
12847;DHT22;6492;48.128;8.320;2023-08-17T08:12:53;29.90;1.30
12847;DHT22;6492;48.128;8.320;2023-08-17T08:16:55;30.10;1.00
12847;DHT22;6492;48.128;8.320;2023-08-17T08:20:58;30.50;1.00
12847;DHT22;6492;48.128;8.320;2023-08-17T08:25:03;30.90;1.00
12847;DHT22;6492;48.128;8.320;2023-08-17T08:29:05;31.00;1.00
12847;DHT22;6492;48.128;8.320;2023-08-17T08:33:06;31.00;1.00
12847;DHT22;6492;48.128;8.320;2023-08-17T08:37:08;31.10;1.00
12847;DHT22;6492;48.128;8.320;2023-08-17T08:41:11;31.40;1.00
12847;DHT22;6492;48.128;8.320;2023-08-17T08:45:13;31.50;1.00
12847;DHT22;6492;48.128;8.320;2023-08-17T08:49:19;31.30;1.00
12847;DHT22;6492;48.128;8.320;2023-08-17T08:53:27;30.90;1.00
12847;DHT22;6492;48.128;8.320;2023-08-17T08:57:34;30.80;1.00
12847;DHT22;6492;48.128;8.320;2023-08-17T09:01:38;30.50;1.00
12847;DHT22;6492;48.128;8.320;2023-08-17T09:05:40;30.20;1.00
12847;DHT22;6492;48.128;8.320;2023-08-17T09:09:45;29.80;1.00
12847;DHT22;6492;48.128;8.320;2023-08-17T09:13:52;29.70;1.00
12847;DHT22;6492;48.128;8.320;2023-08-17T09:17:55;30.00;1.00
12847;DHT22;6492;48.128;8.320;2023-08-17T09:21:57;30.30;1.00
12847;DHT22;6492;48.128;8.320;2023-08-17T09:26:08;30.60;1.00
12847;DHT22;6492;48.128;8.320;2023-08-17T09:30:12;30.60;1.00
12847;DHT22;6492;48.128;8.320;2023-08-17T09:34:15;30.50;1.00
12847;DHT22;6492;48.128;8.320;2023-08-17T09:38:17;30.10;1.00
12847;DHT22;6492;48.128;8.320;2023-08-17T09:42:23;29.80;1.00
12847;DHT22;6492;48.128;8.320;2023-08-17T09:46:27;29.70;1.00
12847;DHT22;6492;48.128;8.320;2023-08-17T09:50:29;29.90;1.00
12847;DHT22;6492;48.128;8.320;2023-08-17T09:54:31;30.10;1.00
12847;DHT22;6492;48.128;8.320;2023-08-17T09:58:33;30.30;1.00
12847;DHT22;6492;48.128;8.320;2023-08-17T10:02:36;30.50;1.00
12847;DHT22;6492;48.128;8.320;2023-08-17T10:06:39;30.40;1.00
12847;DHT22;6492;48.128;8.320;2023-08-17T10:10:44;30.50;1.00
12847;DHT22;6492;48.128;8.320;2023-08-17T10:14:49;30.70;1.00
12847;DHT22;6492;48.128;8.320;2023-08-17T10:18:59;30.70;1.00
12847;DHT22;6492;48.128;8.320;2023-08-17T10:23:10;30.20;1.00
12847;DHT22;6492;48.128;8.320;2023-08-17T10:27:13;29.50;1.00
12847;DHT22;6492;48.128;8.320;2023-08-17T10:31:15;29.20;1.00
12847;DHT22;6492;48.128;8.320;2023-08-17T10:35:19;28.80;1.00
12847;DHT22;6492;48.128;8.320;2023-08-17T10:39:22;28.00;1.00
12847;DHT22;6492;48.128;8.320;2023-08-17T10:43:32;27.20;1.00
12847;DHT22;6492;48.128;8.320;2023-08-17T10:47:34;26.60;1.00
12847;DHT22;6492;48.128;8.320;2023-08-17T10:51:38;26.00;1.00
12847;DHT22;6492;48.128;8.320;2023-08-17T10:55:41;25.60;1.00
12847;DHT22;6492;48.128;8.320;2023-08-17T10:59:45;25.20;1.00
12847;DHT22;6492;48.128;8.320;2023-08-17T11:04:11;25.00;1.00
12847;DHT22;6492;48.128;8.320;2023-08-17T11:08:22;24.80;1.00
12847;DHT22;6492;48.128;8.320;2023-08-17T11:12:27;24.60;1.00
12847;DHT22;6492;48.128;8.320;2023-08-17T11:16:28;24.50;1.00
12847;DHT22;6492;48.128;8.320;2023-08-17T11:20:31;24.40;1.00
12847;DHT22;6492;48.128;8.320;2023-08-17T11:24:35;24.20;1.00
12847;DHT22;6492;48.128;8.320;2023-08-17T11:28:41;24.10;1.00
12847;DHT22;6492;48.128;8.320;2023-08-17T11:32:45;24.00;1.00
12847;DHT22;6492;48.128;8.320;2023-08-17T11:36:47;23.90;1.00
12847;DHT22;6492;48.128;8.320;2023-08-17T11:40:50;23.80;1.00
12847;DHT22;6492;48.128;8.320;2023-08-17T11:44:53;23.80;1.00
12847;DHT22;6492;48.128;8.320;2023-08-17T11:48:54;23.70;1.00
12847;DHT22;6492;48.128;8.320;2023-08-17T11:52:59;23.70;1.00
12847;DHT22;6492;48.128;8.320;2023-08-17T11:57:02;23.70;1.00
12847;DHT22;6492;48.128;8.320;2023-08-17T12:01:09;23.60;1.00
12847;DHT22;6492;48.128;8.320;2023-08-17T12:05:11;23.70;1.00
12847;DHT22;6492;48.128;8.320;2023-08-17T12:09:14;23.80;1.00
12847;DHT22;6492;48.128;8.320;2023-08-17T12:13:17;24.10;1.50
12847;DHT22;6492;48.128;8.320;2023-08-17T12:17:21;25.00;1.00
12847;DHT22;6492;48.128;8.320;2023-08-17T12:21:23;26.60;1.00
12847;DHT22;6492;48.128;8.320;2023-08-17T12:25:25;28.30;1.00
12847;DHT22;6492;48.128;8.320;2023-08-17T12:29:28;29.80;1.00
12847;DHT22;6492;48.128;8.320;2023-08-17T12:33:30;30.90;1.00
12847;DHT22;6492;48.128;8.320;2023-08-17T12:37:32;31.80;1.00
12847;DHT22;6492;48.128;8.320;2023-08-17T12:41:34;32.50;1.00
12847;DHT22;6492;48.128;8.320;2023-08-17T12:45:37;32.90;1.00
12847;DHT22;6492;48.128;8.320;2023-08-17T12:49:39;33.40;1.00
12847;DHT22;6492;48.128;8.320;2023-08-17T12:53:41;33.80;1.00
12847;DHT22;6492;48.128;8.320;2023-08-17T12:57:43;34.30;1.00
12847;DHT22;6492;48.128;8.320;2023-08-17T13:01:46;34.90;1.00
12847;DHT22;6492;48.128;8.320;2023-08-17T13:05:47;35.10;1.00
12847;DHT22;6492;48.128;8.320;2023-08-17T13:09:49;35.00;1.00
12847;DHT22;6492;48.128;8.320;2023-08-17T13:13:51;35.20;1.00
12847;DHT22;6492;48.128;8.320;2023-08-17T13:17:54;35.40;1.00
12847;DHT22;6492;48.128;8.320;2023-08-17T13:21:56;35.40;1.00
12847;DHT22;6492;48.128;8.320;2023-08-17T13:25:58;35.30;1.00
12847;DHT22;6492;48.128;8.320;2023-08-17T13:30:00;35.30;1.00
12847;DHT22;6492;48.128;8.320;2023-08-17T13:34:04;35.70;1.00
12847;DHT22;6492;48.128;8.320;2023-08-17T13:38:06;35.20;1.00
12847;DHT22;6492;48.128;8.320;2023-08-17T13:42:07;35.00;1.00
12847;DHT22;6492;48.128;8.320;2023-08-17T13:46:09;34.20;1.00
12847;DHT22;6492;48.128;8.320;2023-08-17T13:50:12;33.50;1.00
12847;DHT22;6492;48.128;8.320;2023-08-17T13:54:14;32.50;1.00
12847;DHT22;6492;48.128;8.320;2023-08-17T13:58:16;31.70;1.00
12847;DHT22;6492;48.128;8.320;2023-08-17T14:02:18;31.00;1.00
12847;DHT22;6492;48.128;8.320;2023-08-17T14:06:21;30.60;1.00
12847;DHT22;6492;48.128;8.320;2023-08-17T14:10:23;30.50;1.00
12847;DHT22;6492;48.128;8.320;2023-08-17T14:14:25;30.80;1.00
12847;DHT22;6492;48.128;8.320;2023-08-17T14:18:27;31.00;1.00
12847;DHT22;6492;48.128;8.320;2023-08-17T14:22:30;31.30;1.00
12847;DHT22;6492;48.128;8.320;2023-08-17T14:26:32;31.50;1.00
12847;DHT22;6492;48.128;8.320;2023-08-17T14:30:34;32.30;1.00
12847;DHT22;6492;48.128;8.320;2023-08-17T14:34:36;33.10;1.00
12847;DHT22;6492;48.128;8.320;2023-08-17T14:38:39;33.50;1.00
12847;DHT22;6492;48.128;8.320;2023-08-17T14:42:41;32.90;1.00
12847;DHT22;6492;48.128;8.320;2023-08-17T14:46:43;32.20;1.00
12847;DHT22;6492;48.128;8.320;2023-08-17T14:50:44;31.50;1.00
12847;DHT22;6492;48.128;8.320;2023-08-17T14:54:48;30.60;1.00
12847;DHT22;6492;48.128;8.320;2023-08-17T14:58:49;29.90;1.00
12847;DHT22;6492;48.128;8.320;2023-08-17T15:02:51;29.30;1.00
12847;DHT22;6492;48.128;8.320;2023-08-17T15:06:53;28.70;1.00
12847;DHT22;6492;48.128;8.320;2023-08-17T15:10:56;26.60;8.80
12847;DHT22;6492;48.128;8.320;2023-08-17T15:15:02;24.10;17.00
12847;DHT22;6492;48.128;8.320;2023-08-17T15:19:32;22.10;23.70
12847;DHT22;6492;48.128;8.320;2023-08-17T15:23:33;21.00;33.20
12847;DHT22;6492;48.128;8.320;2023-08-17T15:27:45;20.80;46.10
12847;DHT22;6492;48.128;8.320;2023-08-17T15:31:47;21.20;45.30
12847;DHT22;6492;48.128;8.320;2023-08-17T15:35:51;21.80;44.00
12847;DHT22;6492;48.128;8.320;2023-08-17T15:40:05;22.10;35.30
12847;DHT22;6492;48.128;8.320;2023-08-17T15:44:24;22.40;41.00
12847;DHT22;6492;48.128;8.320;2023-08-17T15:48:54;22.70;36.80
12847;DHT22;6492;48.128;8.320;2023-08-17T15:53:03;23.20;38.10
12847;DHT22;6492;48.128;8.320;2023-08-17T15:57:09;23.90;36.00
12847;DHT22;6492;48.128;8.320;2023-08-17T16:01:12;24.30;31.00
12847;DHT22;6492;48.128;8.320;2023-08-17T16:05:15;24.60;31.70
12847;DHT22;6492;48.128;8.320;2023-08-17T16:09:16;24.70;28.60
12847;DHT22;6492;48.128;8.320;2023-08-17T16:13:29;24.60;28.70
12847;DHT22;6492;48.128;8.320;2023-08-17T16:17:33;24.20;27.30
12847;DHT22;6492;48.128;8.320;2023-08-17T16:21:48;23.30;28.60
12847;DHT22;6492;48.128;8.320;2023-08-17T16:25:50;22.40;30.70
12847;DHT22;6492;48.128;8.320;2023-08-17T16:29:52;21.90;37.00
12847;DHT22;6492;48.128;8.320;2023-08-17T16:33:55;21.80;41.00
12847;DHT22;6492;48.128;8.320;2023-08-17T16:37:57;21.60;43.30
12847;DHT22;6492;48.128;8.320;2023-08-17T16:42:01;21.90;42.60
12847;DHT22;6492;48.128;8.320;2023-08-17T16:46:02;21.90;38.10
12847;DHT22;6492;48.128;8.320;2023-08-17T16:50:06;22.00;37.40
12847;DHT22;6492;48.128;8.320;2023-08-17T16:54:08;22.10;32.40
12847;DHT22;6492;48.128;8.320;2023-08-17T16:58:12;22.00;27.40
12847;DHT22;6492;48.128;8.320;2023-08-17T17:02:13;22.00;30.00
12847;DHT22;6492;48.128;8.320;2023-08-17T17:06:32;21.90;25.40
12847;DHT22;6492;48.128;8.320;2023-08-17T17:10:35;21.80;26.10
12847;DHT22;6492;48.128;8.320;2023-08-17T17:14:38;21.90;26.40
12847;DHT22;6492;48.128;8.320;2023-08-17T17:18:40;21.90;23.80
12847;DHT22;6492;48.128;8.320;2023-08-17T17:22:43;21.80;23.50
12847;DHT22;6492;48.128;8.320;2023-08-17T17:26:45;21.60;24.20
12847;DHT22;6492;48.128;8.320;2023-08-17T17:30:56;21.60;26.30
12847;DHT22;6492;48.128;8.320;2023-08-17T17:35:05;21.50;25.60
12847;DHT22;6492;48.128;8.320;2023-08-17T17:39:18;21.40;24.40
12847;DHT22;6492;48.128;8.320;2023-08-17T17:43:20;21.10;26.20
12847;DHT22;6492;48.128;8.320;2023-08-17T17:47:45;20.80;27.00
12847;DHT22;6492;48.128;8.320;2023-08-17T17:51:48;20.70;28.50
12847;DHT22;6492;48.128;8.320;2023-08-17T17:55:52;20.50;28.70
12847;DHT22;6492;48.128;8.320;2023-08-17T18:00:00;20.10;30.00
12847;DHT22;6492;48.128;8.320;2023-08-17T18:04:02;19.90;31.20
12847;DHT22;6492;48.128;8.320;2023-08-17T18:08:05;19.70;32.60
12847;DHT22;6492;48.128;8.320;2023-08-17T18:12:09;19.50;35.30
12847;DHT22;6492;48.128;8.320;2023-08-17T18:16:11;19.20;38.80
12847;DHT22;6492;48.128;8.320;2023-08-17T18:20:13;18.80;43.40
12847;DHT22;6492;48.128;8.320;2023-08-17T18:24:15;18.50;43.60
12847;DHT22;6492;48.128;8.320;2023-08-17T18:28:18;18.30;42.90
12847;DHT22;6492;48.128;8.320;2023-08-17T18:32:19;18.00;41.70
12847;DHT22;6492;48.128;8.320;2023-08-17T18:36:21;17.80;44.20
12847;DHT22;6492;48.128;8.320;2023-08-17T18:40:23;17.60;45.50
12847;DHT22;6492;48.128;8.320;2023-08-17T18:44:26;17.40;46.80
12847;DHT22;6492;48.128;8.320;2023-08-17T18:48:28;17.30;50.40
12847;DHT22;6492;48.128;8.320;2023-08-17T18:52:29;17.00;55.20
12847;DHT22;6492;48.128;8.320;2023-08-17T18:56:31;16.90;58.60
12847;DHT22;6492;48.128;8.320;2023-08-17T19:00:34;16.70;59.40
12847;DHT22;6492;48.128;8.320;2023-08-17T19:04:36;16.60;59.60
12847;DHT22;6492;48.128;8.320;2023-08-17T19:08:39;16.50;62.10
12847;DHT22;6492;48.128;8.320;2023-08-17T19:12:41;16.40;63.30
12847;DHT22;6492;48.128;8.320;2023-08-17T19:16:44;16.30;63.80
12847;DHT22;6492;48.128;8.320;2023-08-17T19:20:46;16.30;63.90
12847;DHT22;6492;48.128;8.320;2023-08-17T19:24:48;16.20;63.80
12847;DHT22;6492;48.128;8.320;2023-08-17T19:28:59;16.10;64.60
12847;DHT22;6492;48.128;8.320;2023-08-17T19:33:02;16.00;64.90
12847;DHT22;6492;48.128;8.320;2023-08-17T19:37:04;16.00;65.40
12847;DHT22;6492;48.128;8.320;2023-08-17T19:41:08;16.00;67.30
12847;DHT22;6492;48.128;8.320;2023-08-17T19:45:10;16.00;67.40
12847;DHT22;6492;48.128;8.320;2023-08-17T19:49:13;15.90;67.50
12847;DHT22;6492;48.128;8.320;2023-08-17T19:53:15;15.80;67.30
12847;DHT22;6492;48.128;8.320;2023-08-17T19:57:17;15.80;69.20
12847;DHT22;6492;48.128;8.320;2023-08-17T20:01:19;15.80;70.40
12847;DHT22;6492;48.128;8.320;2023-08-17T20:05:23;15.80;71.40
12847;DHT22;6492;48.128;8.320;2023-08-17T20:09:25;15.80;72.00
12847;DHT22;6492;48.128;8.320;2023-08-17T20:13:29;15.90;72.90
12847;DHT22;6492;48.128;8.320;2023-08-17T20:17:31;15.90;73.20
12847;DHT22;6492;48.128;8.320;2023-08-17T20:21:34;16.00;72.90
12847;DHT22;6492;48.128;8.320;2023-08-17T20:25:40;16.00;72.30
12847;DHT22;6492;48.128;8.320;2023-08-17T20:29:56;16.00;71.60
12847;DHT22;6492;48.128;8.320;2023-08-17T20:33:58;16.00;71.40
12847;DHT22;6492;48.128;8.320;2023-08-17T20:38:03;15.90;71.00
12847;DHT22;6492;48.128;8.320;2023-08-17T20:42:09;15.80;70.90
12847;DHT22;6492;48.128;8.320;2023-08-17T20:46:13;15.90;71.50
12847;DHT22;6492;48.128;8.320;2023-08-17T20:50:17;15.90;71.00
12847;DHT22;6492;48.128;8.320;2023-08-17T20:54:21;15.90;70.00
12847;DHT22;6492;48.128;8.320;2023-08-17T20:58:24;16.00;68.30
12847;DHT22;6492;48.128;8.320;2023-08-17T21:02:26;16.00;66.70
12847;DHT22;6492;48.128;8.320;2023-08-17T21:06:30;16.10;65.00
12847;DHT22;6492;48.128;8.320;2023-08-17T21:10:33;16.10;64.00
12847;DHT22;6492;48.128;8.320;2023-08-17T21:14:35;16.10;64.40
12847;DHT22;6492;48.128;8.320;2023-08-17T21:18:37;16.10;64.00
12847;DHT22;6492;48.128;8.320;2023-08-17T21:22:43;16.00;64.40
12847;DHT22;6492;48.128;8.320;2023-08-17T21:26:46;16.00;65.40
12847;DHT22;6492;48.128;8.320;2023-08-17T21:30:48;15.90;65.30
12847;DHT22;6492;48.128;8.320;2023-08-17T21:34:50;15.80;65.70
12847;DHT22;6492;48.128;8.320;2023-08-17T21:38:52;15.80;65.80
12847;DHT22;6492;48.128;8.320;2023-08-17T21:42:55;15.80;65.70
12847;DHT22;6492;48.128;8.320;2023-08-17T21:46:56;15.80;65.20
12847;DHT22;6492;48.128;8.320;2023-08-17T21:51:01;15.80;65.20
12847;DHT22;6492;48.128;8.320;2023-08-17T21:55:03;15.70;65.50
12847;DHT22;6492;48.128;8.320;2023-08-17T21:59:06;15.70;65.70
12847;DHT22;6492;48.128;8.320;2023-08-17T22:03:09;15.70;65.90
12847;DHT22;6492;48.128;8.320;2023-08-17T22:07:10;15.60;65.70
12847;DHT22;6492;48.128;8.320;2023-08-17T22:11:12;15.60;64.10
12847;DHT22;6492;48.128;8.320;2023-08-17T22:15:15;15.60;63.60
12847;DHT22;6492;48.128;8.320;2023-08-17T22:19:17;15.50;64.30
12847;DHT22;6492;48.128;8.320;2023-08-17T22:23:19;15.50;64.80
12847;DHT22;6492;48.128;8.320;2023-08-17T22:27:21;15.50;65.00
12847;DHT22;6492;48.128;8.320;2023-08-17T22:31:24;15.50;64.00
12847;DHT22;6492;48.128;8.320;2023-08-17T22:35:26;15.50;62.70
12847;DHT22;6492;48.128;8.320;2023-08-17T22:39:28;15.50;59.10
12847;DHT22;6492;48.128;8.320;2023-08-17T22:43:29;15.50;58.80
12847;DHT22;6492;48.128;8.320;2023-08-17T22:47:33;15.50;58.60
12847;DHT22;6492;48.128;8.320;2023-08-17T22:51:35;15.50;58.10
12847;DHT22;6492;48.128;8.320;2023-08-17T22:55:36;15.40;57.40
12847;DHT22;6492;48.128;8.320;2023-08-17T22:59:38;15.40;57.20
12847;DHT22;6492;48.128;8.320;2023-08-17T23:03:41;15.40;56.10
12847;DHT22;6492;48.128;8.320;2023-08-17T23:07:43;15.40;54.90
12847;DHT22;6492;48.128;8.320;2023-08-17T23:11:45;15.30;54.80
12847;DHT22;6492;48.128;8.320;2023-08-17T23:15:47;15.30;54.20
12847;DHT22;6492;48.128;8.320;2023-08-17T23:19:51;15.30;55.00
12847;DHT22;6492;48.128;8.320;2023-08-17T23:23:52;15.30;53.10
12847;DHT22;6492;48.128;8.320;2023-08-17T23:27:54;15.30;52.40
12847;DHT22;6492;48.128;8.320;2023-08-17T23:31:56;15.30;51.40
12847;DHT22;6492;48.128;8.320;2023-08-17T23:35:59;15.30;51.50
12847;DHT22;6492;48.128;8.320;2023-08-17T23:40:01;15.40;50.70
12847;DHT22;6492;48.128;8.320;2023-08-17T23:44:04;15.40;48.90
12847;DHT22;6492;48.128;8.320;2023-08-17T23:48:07;15.40;49.20
12847;DHT22;6492;48.128;8.320;2023-08-17T23:52:10;15.30;49.60
12847;DHT22;6492;48.128;8.320;2023-08-17T23:56:11;15.20;50.00
